Time;durP1;ratioP1;P1;durP2;ratioP2;P2;SDS_P1;SDS_P2;PMS_P1;PMS_P2;Temp;Humidity;BMP_temperature;BMP_pressure;BME280_temperature;BME280_humidity;BME280_pressure;Samples;Min_cycle;Max_cycle;Signal;HPM_P1;HPM_P2
2022/06/24 00:00:32;;;;;;;4.95;3.20;;;23.30;87.60;;;;;;5089864;28;20277;-51
2022/06/24 00:03:00;;;;;;;3.92;3.10;;;23.30;86.80;;;;;;5089837;28;20212;-51
2022/06/24 00:05:30;;;;;;;4.25;3.22;;;23.30;87.50;;;;;;5089494;28;20281;-51
2022/06/24 00:07:59;;;;;;;7.60;3.25;;;23.20;88.80;;;;;;5089791;28;20212;-51
2022/06/24 00:10:34;;;;;;;5.18;3.20;;;23.20;89.30;;;;;;5089350;28;20208;-51
2022/06/24 00:13:03;;;;;;;3.72;3.40;;;23.10;89.30;;;;;;5089652;28;20264;-51
2022/06/24 00:15:33;;;;;;;5.13;2.92;;;23.00;90.00;;;;;;5089851;28;20232;-51
2022/06/24 00:18:12;;;;;;;4.60;3.35;;;23.00;89.60;;;;;;5089638;28;20277;-51
2022/06/24 00:20:43;;;;;;;5.22;3.70;;;23.00;90.30;;;;;;5089220;28;20247;-51
2022/06/24 00:23:12;;;;;;;5.72;3.50;;;22.90;90.50;;;;;;5089787;28;20208;-51
2022/06/24 00:25:42;;;;;;;4.25;3.20;;;22.80;90.60;;;;;;5089469;28;20605;-50
2022/06/24 00:28:12;;;;;;;3.55;3.25;;;22.80;91.40;;;;;;5089731;28;20253;-50
2022/06/24 00:30:41;;;;;;;5.38;3.55;;;22.70;91.70;;;;;;5088152;28;20624;-50
2022/06/24 00:33:12;;;;;;;3.65;3.35;;;22.80;91.30;;;;;;5089674;28;20236;-51
2022/06/24 00:35:42;;;;;;;4.03;3.30;;;22.70;91.70;;;;;;5079992;28;20908;-51
2022/06/24 00:38:26;;;;;;;4.43;3.42;;;22.70;91.50;;;;;;5085105;28;20240;-52
2022/06/24 00:40:57;;;;;;;5.13;3.30;;;22.70;92.40;;;;;;5087998;28;20232;-51
2022/06/24 00:43:32;;;;;;;4.88;3.50;;;22.80;91.90;;;;;;5089003;28;20200;-51
2022/06/24 00:46:07;;;;;;;4.55;3.75;;;22.70;92.80;;;;;;5089541;28;20243;-51
2022/06/24 00:48:38;;;;;;;5.25;3.72;;;22.70;93.50;;;;;;5087344;28;20235;-50
2022/06/24 00:51:07;;;;;;;4.75;3.60;;;22.70;93.10;;;;;;5106868;28;20676;-51
2022/06/24 00:53:43;;;;;;;4.45;3.47;;;22.70;93.50;;;;;;5101483;28;20195;-51
2022/06/24 00:56:16;;;;;;;4.22;3.47;;;22.70;93.70;;;;;;5109970;28;20647;-52
2022/06/24 00:58:51;;;;;;;4.10;3.40;;;22.70;93.60;;;;;;5110055;28;20276;-51
2022/06/24 01:01:27;;;;;;;5.35;3.80;;;22.70;93.90;;;;;;5109372;28;20250;-51
2022/06/24 01:03:56;;;;;;;4.20;3.80;;;22.70;94.20;;;;;;5109305;28;20268;-51
2022/06/24 01:06:24;;;;;;;4.13;3.67;;;22.70;94.20;;;;;;5107708;28;20707;-51
2022/06/24 01:08:53;;;;;;;3.67;3.40;;;22.60;94.60;;;;;;5109606;28;20227;-51
2022/06/24 01:11:25;;;;;;;6.43;3.60;;;22.50;94.20;;;;;;5109362;28;20250;-51
2022/06/24 01:13:54;;;;;;;5.38;3.47;;;22.50;94.30;;;;;;5110008;28;20276;-51
2022/06/24 01:16:23;;;;;;;7.05;3.80;;;22.40;94.70;;;;;;5108616;28;20203;-51
2022/06/24 01:18:52;;;;;;;5.40;3.30;;;22.40;94.40;;;;;;5109366;28;20250;-51
2022/06/24 01:21:35;;;;;;;6.93;3.80;;;22.40;94.10;;;;;;5107928;28;20344;-52
2022/06/24 01:24:08;;;;;;;4.88;3.47;;;22.40;94.20;;;;;;5102084;28;20229;-50
2022/06/24 01:26:36;;;;;;;4.00;3.53;;;22.30;94.10;;;;;;5109327;28;20224;-52
2022/06/24 01:29:11;;;;;;;6.53;3.80;;;22.30;94.40;;;;;;5109320;28;20223;-51
2022/06/24 01:31:40;;;;;;;3.65;3.35;;;22.30;94.60;;;;;;5109706;28;20203;-50
2022/06/24 01:34:09;;;;;;;4.78;3.63;;;22.30;94.60;;;;;;5109873;28;20218;-51
2022/06/24 01:36:39;;;;;;;5.05;3.47;;;22.30;95.00;;;;;;5109488;28;20256;-49
2022/06/24 01:39:07;;;;;;;5.35;3.92;;;22.30;95.30;;;;;;5108593;28;20296;-51
2022/06/24 01:41:35;;;;;;;4.93;3.75;;;22.20;96.70;;;;;;5109234;28;20268;-51
2022/06/24 01:44:04;;;;;;;6.70;4.10;;;22.20;97.30;;;;;;5101688;28;20207;-51
2022/06/24 01:46:32;;;;;;;7.03;4.00;;;22.10;98.40;;;;;;5098382;28;20306;-51
2022/06/24 01:49:00;;;;;;;4.85;4.00;;;22.10;98.10;;;;;;5102221;28;20223;-51
2022/06/24 01:51:29;;;;;;;6.43;4.05;;;22.10;97.90;;;;;;5112477;28;20250;-51
2022/06/24 01:53:58;;;;;;;5.03;4.15;;;22.00;97.90;;;;;;5112964;28;20207;-51
2022/06/24 01:56:26;;;;;;;7.20;4.20;;;22.10;98.30;;;;;;5112810;28;20624;-51
2022/06/24 01:58:54;;;;;;;5.43;3.95;;;22.00;98.40;;;;;;5119725;28;20231;-51
2022/06/24 02:01:22;;;;;;;6.22;4.10;;;22.00;98.90;;;;;;5119059;28;20208;-51
2022/06/24 02:03:51;;;;;;;4.70;4.30;;;22.00;98.70;;;;;;5114954;28;20285;-50
2022/06/24 02:06:19;;;;;;;7.85;4.25;;;22.00;99.40;;;;;;5112499;28;20305;-51
2022/06/24 02:08:48;;;;;;;5.32;4.40;;;22.00;99.60;;;;;;5112114;28;20257;-51
2022/06/24 02:14:05;;;;;;;4.55;4.15;;;21.90;99.90;;;;;;5112500;28;20257;-51
2022/06/24 02:16:34;;;;;;;9.32;4.75;;;21.90;99.70;;;;;;5112301;28;20204;-51
2022/06/24 02:19:02;;;;;;;4.97;4.50;;;21.90;99.90;;;;;;5112092;28;20239;-50
2022/06/24 02:21:30;;;;;;;5.95;4.93;;;21.90;99.90;;;;;;5109991;28;20236;-51
2022/06/24 02:23:58;;;;;;;5.57;4.50;;;21.90;99.90;;;;;;5106316;28;20207;-52
2022/06/24 02:26:28;;;;;;;6.07;4.60;;;21.80;99.90;;;;;;5112608;28;20313;-50
2022/06/24 02:28:56;;;;;;;6.30;4.68;;;21.70;99.90;;;;;;5111452;28;20792;-51
2022/06/24 02:31:25;;;;;;;4.93;4.28;;;21.70;99.90;;;;;;5112230;28;20252;-51
2022/06/24 02:33:53;;;;;;;5.43;4.50;;;21.70;99.90;;;;;;5112409;28;20696;-50
2022/06/24 02:36:21;;;;;;;7.45;4.80;;;21.70;99.90;;;;;;5111821;28;20217;-51
2022/06/24 02:38:49;;;;;;;5.75;4.50;;;21.60;99.90;;;;;;5096816;28;20349;-51
2022/06/24 02:41:20;;;;;;;10.70;4.68;;;21.60;99.90;;;;;;5109397;28;20242;-50
2022/06/24 02:43:50;;;;;;;5.88;5.18;;;21.50;99.90;;;;;;5095395;28;20253;-49
2022/06/24 02:46:18;;;;;;;10.98;5.35;;;21.50;99.90;;;;;;5111758;28;20282;-51
2022/06/24 02:48:47;;;;;;;8.38;5.10;;;21.50;99.90;;;;;;5104060;28;20223;-51
2022/06/24 02:51:16;;;;;;;6.70;4.97;;;21.40;99.90;;;;;;5112128;28;20203;-52
2022/06/24 02:53:44;;;;;;;5.13;4.65;;;21.40;99.90;;;;;;5110587;28;20261;-51
2022/06/24 02:56:15;;;;;;;9.27;5.35;;;21.40;99.90;;;;;;5112339;28;20228;-51
2022/06/24 02:58:44;;;;;;;6.82;5.05;;;21.40;99.90;;;;;;5111511;28;20266;-51
2022/06/24 03:01:13;;;;;;;6.35;4.53;;;21.40;99.90;;;;;;5111631;28;20260;-51
2022/06/24 03:03:41;;;;;;;10.63;5.10;;;21.40;99.90;;;;;;5111472;28;20208;-51
2022/06/24 03:06:13;;;;;;;6.55;5.32;;;21.40;99.90;;;;;;5111627;28;20219;-51
2022/06/24 03:08:43;;;;;;;6.03;5.10;;;21.40;99.90;;;;;;5111065;28;20227;-51
2022/06/24 03:11:14;;;;;;;7.47;5.10;;;21.40;99.90;;;;;;5112032;28;20203;-51
2022/06/24 03:13:42;;;;;;;6.05;5.00;;;21.40;99.90;;;;;;5111378;28;20726;-51
2022/06/24 03:16:10;;;;;;;6.85;5.22;;;21.40;99.90;;;;;;5111950;28;20203;-51
2022/06/24 03:18:40;;;;;;;7.35;5.38;;;21.30;99.90;;;;;;5111390;28;20235;-51
2022/06/24 03:21:08;;;;;;;8.90;5.40;;;21.40;99.90;;;;;;5109822;28;20734;-50
2022/06/24 03:23:36;;;;;;;7.22;5.30;;;21.40;99.90;;;;;;5093539;28;20291;-50
2022/06/24 03:26:04;;;;;;;6.78;5.40;;;21.40;99.90;;;;;;5110880;28;20266;-48
2022/06/24 03:28:32;;;;;;;9.27;5.75;;;21.40;99.90;;;;;;5110228;28;20723;-51
2022/06/24 03:31:00;;;;;;;7.90;6.20;;;21.40;99.90;;;;;;5110430;28;20204;-52
2022/06/24 03:33:28;;;;;;;9.25;6.40;;;21.30;99.90;;;;;;5111333;28;20272;-51
2022/06/24 03:35:58;;;;;;;9.35;5.95;;;21.20;99.90;;;;;;5110943;28;20721;-51
2022/06/24 03:38:26;;;;;;;10.38;6.72;;;21.10;99.90;;;;;;5110356;28;20344;-52
2022/06/24 03:40:54;;;;;;;12.75;7.55;;;21.10;99.90;;;;;;5111254;28;20684;-51
2022/06/24 03:43:22;;;;;;;9.20;8.13;;;21.10;99.90;;;;;;5111258;28;20207;-51
2022/06/24 03:45:50;;;;;;;8.57;7.30;;;21.10;99.90;;;;;;5110527;28;20684;-51
2022/06/24 03:48:19;;;;;;;11.10;6.55;;;21.10;99.90;;;;;;5102744;28;20707;-51
2022/06/24 03:50:47;;;;;;;8.70;7.13;;;21.10;99.90;;;;;;5111354;28;20238;-51
2022/06/24 03:53:16;;;;;;;11.27;7.43;;;21.00;99.90;;;;;;5110397;28;20210;-51
2022/06/24 03:55:49;;;;;;;7.97;6.68;;;21.00;99.90;;;;;;5111019;28;20257;-51
2022/06/24 03:58:17;;;;;;;10.35;6.68;;;21.00;99.90;;;;;;5110902;28;20284;-51
2022/06/24 04:00:46;;;;;;;7.68;6.47;;;21.00;99.90;;;;;;5110738;28;20215;-51
2022/06/24 04:03:14;;;;;;;9.25;6.70;;;21.00;99.90;;;;;;5110676;28;20625;-50
2022/06/24 04:05:43;;;;;;;9.00;7.32;;;21.00;99.90;;;;;;5110635;28;20207;-51
2022/06/24 04:08:11;;;;;;;8.90;6.80;;;21.00;99.90;;;;;;5111380;28;20719;-51
2022/06/24 04:10:40;;;;;;;8.65;6.60;;;21.00;99.90;;;;;;5111415;28;20733;-50
2022/06/24 04:13:08;;;;;;;8.15;6.60;;;21.00;99.90;;;;;;5111686;28;20235;-51
2022/06/24 04:15:37;;;;;;;11.68;7.13;;;21.00;99.90;;;;;;5110949;28;20204;-51
2022/06/24 04:18:05;;;;;;;12.05;7.32;;;21.00;99.90;;;;;;5110545;28;20672;-50
2022/06/24 04:20:33;;;;;;;9.45;7.22;;;21.00;99.90;;;;;;5107887;28;20203;-51
2022/06/24 04:23:01;;;;;;;7.95;7.15;;;20.90;99.90;;;;;;5101121;28;20668;-51
2022/06/24 04:25:29;;;;;;;11.95;8.23;;;20.90;99.90;;;;;;5110230;28;20236;-51
2022/06/24 04:27:58;;;;;;;11.35;9.07;;;20.80;99.90;;;;;;5109715;28;20239;-50
2022/06/24 04:30:27;;;;;;;13.38;8.40;;;20.70;99.90;;;;;;5110065;28;20303;-50
2022/06/24 04:32:55;;;;;;;11.73;8.60;;;20.70;99.90;;;;;;5109820;28;20207;-49
2022/06/24 04:35:23;;;;;;;13.25;8.75;;;20.60;99.90;;;;;;5110251;28;20205;-50
2022/06/24 04:37:51;;;;;;;12.35;8.80;;;20.50;99.90;;;;;;5109502;28;20308;-50
2022/06/24 04:40:19;;;;;;;9.75;8.32;;;20.50;99.90;;;;;;5110425;28;20279;-51
2022/06/24 04:42:47;;;;;;;9.27;7.55;;;20.50;99.90;;;;;;5109571;28;20207;-51
2022/06/24 04:45:17;;;;;;;11.15;7.90;;;20.50;99.90;;;;;;5110317;28;20207;-51
2022/06/24 04:47:45;;;;;;;14.32;7.60;;;20.40;99.90;;;;;;5101601;28;20977;-51
2022/06/24 04:50:13;;;;;;;11.90;6.60;;;20.40;99.90;;;;;;5109853;28;20227;-51
2022/06/24 04:52:41;;;;;;;12.32;6.18;;;20.30;99.90;;;;;;5109750;28;20211;-51
2022/06/24 04:55:10;;;;;;;8.93;5.20;;;20.30;99.90;;;;;;5109809;28;20253;-51
2022/06/24 04:57:38;;;;;;;15.90;5.80;;;20.20;99.90;;;;;;5107835;28;20234;-50
2022/06/24 05:00:09;;;;;;;12.13;5.05;;;20.10;99.90;;;;;;5109320;28;20227;-51
2022/06/24 05:02:39;;;;;;;10.30;5.25;;;20.00;99.90;;;;;;5082154;28;20211;-50
2022/06/24 05:05:08;;;;;;;10.43;4.97;;;20.00;99.90;;;;;;5109104;28;20200;-50
2022/06/24 05:07:36;;;;;;;9.18;5.03;;;20.00;99.90;;;;;;5109351;28;20223;-51
2022/06/24 05:10:06;;;;;;;10.32;4.88;;;19.90;99.90;;;;;;5109796;28;20712;-51
2022/06/24 05:12:47;;;;;;;9.93;4.50;;;20.00;99.90;;;;;;5112861;28;20225;-51
2022/06/24 05:15:15;;;;;;;7.78;4.10;;;19.90;99.90;;;;;;5109835;28;20242;-50
2022/06/24 05:17:44;;;;;;;9.60;4.22;;;19.90;99.90;;;;;;5111427;28;20235;-50
2022/06/24 05:20:12;;;;;;;7.90;3.75;;;19.90;99.90;;;;;;5113076;28;20237;-51
2022/06/24 05:22:41;;;;;;;9.52;4.03;;;20.00;99.90;;;;;;5101600;28;20701;-52
2022/06/24 05:25:10;;;;;;;6.97;3.55;;;20.00;99.90;;;;;;5113367;28;20626;-51
2022/06/24 05:27:38;;;;;;;6.43;3.60;;;20.10;99.90;;;;;;5113688;28;20235;-51
2022/06/24 05:30:08;;;;;;;9.30;3.60;;;20.10;99.90;;;;;;5114241;28;20223;-51
2022/06/24 05:32:36;;;;;;;8.02;3.70;;;20.10;99.90;;;;;;5111789;28;20260;-52
2022/06/24 05:35:10;;;;;;;10.18;3.85;;;20.20;99.90;;;;;;5102677;28;20884;-50
2022/06/24 05:37:39;;;;;;;8.43;3.60;;;20.10;99.90;;;;;;5115042;28;20225;-50
2022/06/24 05:40:08;;;;;;;7.88;3.67;;;20.10;99.90;;;;;;5115171;28;20918;-50
2022/06/24 05:42:36;;;;;;;5.32;3.42;;;20.10;99.90;;;;;;5113227;28;20925;-51
2022/06/24 05:45:04;;;;;;;8.82;3.90;;;20.10;99.90;;;;;;5099125;28;20261;-51
2022/06/24 05:47:35;;;;;;;6.55;3.50;;;20.10;99.90;;;;;;5104107;28;20263;-50
2022/06/24 05:50:03;;;;;;;6.75;3.72;;;20.20;99.90;;;;;;5093505;28;20271;-50
2022/06/24 05:55:18;;;;;;;7.07;3.42;;;20.50;99.90;;;;;;5085131;28;20207;-51
2022/06/24 05:57:47;;;;;;;6.40;3.85;;;21.00;99.90;;;;;;5105091;28;20231;-50
2022/06/24 06:00:16;;;;;;;8.13;3.33;;;21.40;99.90;;;;;;5099367;28;20293;-51
2022/06/24 06:02:44;;;;;;;7.90;3.50;;;21.70;99.90;;;;;;5112073;28;20231;-51
2022/06/24 06:05:13;;;;;;;6.68;3.38;;;21.70;99.90;;;;;;5113030;28;20249;-51
2022/06/24 06:07:42;;;;;;;6.57;3.13;;;21.70;99.90;;;;;;5112549;28;20269;-50
2022/06/24 06:10:11;;;;;;;4.78;2.92;;;21.80;99.90;;;;;;5112918;28;20223;-50
2022/06/24 06:12:39;;;;;;;6.75;3.25;;;21.80;99.90;;;;;;5112386;28;20244;-51
2022/06/24 06:15:08;;;;;;;6.38;3.58;;;21.80;99.90;;;;;;5112468;28;20725;-50
2022/06/24 06:17:36;;;;;;;5.15;2.92;;;21.80;99.90;;;;;;5112121;28;20216;-51
2022/06/24 06:20:05;;;;;;;6.95;3.28;;;21.80;99.90;;;;;;5112587;28;20227;-51
2022/06/24 06:22:33;;;;;;;6.50;3.28;;;21.80;99.90;;;;;;5101644;28;20212;-50
2022/06/24 06:25:03;;;;;;;6.00;3.55;;;21.70;99.90;;;;;;5112461;28;20207;-50
2022/06/24 06:27:31;;;;;;;6.82;3.50;;;21.70;99.90;;;;;;5111598;28;20732;-51
2022/06/24 06:29:59;;;;;;;4.20;3.30;;;21.70;99.90;;;;;;5111604;28;20262;-51
2022/06/24 06:32:27;;;;;;;6.45;3.83;;;21.80;99.90;;;;;;5112221;28;20839;-51
2022/06/24 06:35:01;;;;;;;5.53;3.92;;;21.80;99.90;;;;;;5112389;28;20204;-49
2022/06/24 06:37:29;;;;;;;7.30;3.60;;;21.70;99.90;;;;;;5100250;28;20233;-51
2022/06/24 06:39:58;;;;;;;5.53;3.72;;;21.70;99.90;;;;;;5085200;28;20653;-50
2022/06/24 06:42:27;;;;;;;7.80;4.05;;;21.60;99.90;;;;;;5103786;28;20212;-51
2022/06/24 06:44:56;;;;;;;7.07;3.80;;;21.60;99.90;;;;;;5111571;28;20303;-50
2022/06/24 06:47:24;;;;;;;5.35;3.33;;;21.50;99.90;;;;;;5106044;28;20247;-51
2022/06/24 06:49:52;;;;;;;6.55;3.55;;;21.40;99.90;;;;;;5109077;28;20255;-51
2022/06/24 06:52:21;;;;;;;6.03;3.75;;;21.30;99.90;;;;;;5111560;28;20641;-52
2022/06/24 06:54:49;;;;;;;5.25;3.67;;;21.30;99.90;;;;;;5111473;28;20207;-52
2022/06/24 06:57:18;;;;;;;6.35;3.72;;;21.40;99.90;;;;;;5109636;28;20249;-51
2022/06/24 06:59:49;;;;;;;5.88;3.60;;;21.30;99.90;;;;;;5101531;28;20780;-50
2022/06/24 07:02:17;;;;;;;5.68;3.78;;;21.20;99.90;;;;;;5109361;28;20204;-51
2022/06/24 07:04:45;;;;;;;9.07;3.78;;;21.20;99.90;;;;;;5111594;28;20212;-51
2022/06/24 07:07:13;;;;;;;5.68;3.78;;;21.10;99.90;;;;;;5111358;28;20234;-50
2022/06/24 07:09:41;;;;;;;7.70;3.92;;;21.00;99.90;;;;;;5111073;28;20649;-50
2022/06/24 07:12:10;;;;;;;5.50;3.90;;;21.00;99.90;;;;;;5111347;28;20233;-50
2022/06/24 07:14:40;;;;;;;7.20;4.22;;;21.00;99.90;;;;;;5111428;28;20231;-51
2022/06/24 07:17:17;;;;;;;8.95;4.55;;;21.00;99.90;;;;;;5110582;28;20616;-51
2022/06/24 07:19:46;;;;;;;7.45;4.50;;;21.00;99.90;;;;;;5098676;28;20269;-49
2022/06/24 07:22:15;;;;;;;11.32;4.40;;;20.90;99.90;;;;;;5099518;28;20257;-51
2022/06/24 07:24:44;;;;;;;7.18;4.70;;;20.90;99.90;;;;;;5111106;28;20863;-50
2022/06/24 07:27:12;;;;;;;10.65;4.60;;;20.90;99.90;;;;;;5111383;28;20208;-50
2022/06/24 07:29:40;;;;;;;7.78;4.15;;;20.90;99.90;;;;;;5110943;28;20269;-50
2022/06/24 07:32:12;;;;;;;7.60;4.25;;;20.90;99.90;;;;;;5102892;28;20209;-51
2022/06/24 07:34:42;;;;;;;7.15;3.70;;;20.80;99.90;;;;;;5094238;28;20253;-51
2022/06/24 07:37:10;;;;;;;7.80;3.80;;;20.80;99.90;;;;;;5110348;28;20261;-51
2022/06/24 07:39:43;;;;;;;7.90;4.30;;;20.70;99.90;;;;;;5110304;28;20267;-51
2022/06/24 07:42:11;;;;;;;9.40;4.18;;;20.70;99.90;;;;;;5111135;28;20238;-51
2022/06/24 07:44:40;;;;;;;9.88;3.92;;;20.70;99.90;;;;;;5110378;28;20238;-50
2022/06/24 07:47:08;;;;;;;7.32;4.18;;;20.80;99.90;;;;;;5110250;28;20211;-51
2022/06/24 07:49:36;;;;;;;6.68;4.50;;;20.80;99.90;;;;;;5105415;28;20606;-52
2022/06/24 07:52:08;;;;;;;7.40;4.07;;;20.70;99.90;;;;;;5111361;28;20587;-51
2022/06/24 07:54:36;;;;;;;10.80;4.30;;;20.70;99.90;;;;;;5111299;28;20199;-50
2022/06/24 07:57:04;;;;;;;12.52;4.40;;;20.60;99.90;;;;;;5108621;28;20203;-50
2022/06/24 07:59:34;;;;;;;12.57;5.05;;;20.70;99.90;;;;;;5104590;28;20660;-51
2022/06/24 08:02:04;;;;;;;7.60;5.18;;;20.70;99.90;;;;;;5109622;28;20253;-52
2022/06/24 08:04:32;;;;;;;7.25;4.70;;;20.60;99.90;;;;;;5110741;28;20199;-51
2022/06/24 08:07:02;;;;;;;8.93;4.50;;;20.50;99.90;;;;;;5110447;28;20239;-51
2022/06/24 08:09:32;;;;;;;9.25;5.25;;;20.60;99.90;;;;;;5110631;28;20296;-51
2022/06/24 08:12:01;;;;;;;10.90;4.55;;;20.70;99.90;;;;;;5110571;28;20676;-50
2022/06/24 08:14:29;;;;;;;7.35;4.40;;;20.70;99.90;;;;;;5086942;28;20200;-50
2022/06/24 08:16:57;;;;;;;10.00;4.32;;;20.70;99.90;;;;;;5110608;28;20207;-51
2022/06/24 08:19:25;;;;;;;8.95;4.30;;;20.90;99.90;;;;;;5101134;28;20228;-50
2022/06/24 08:21:53;;;;;;;5.55;4.22;;;21.20;99.90;;;;;;5090716;28;20250;-51
2022/06/24 08:24:21;;;;;;;7.35;4.60;;;21.60;99.90;;;;;;5088725;28;20236;-51
2022/06/24 08:26:51;;;;;;;7.95;4.50;;;21.80;99.90;;;;;;5088469;28;20212;-51
2022/06/24 08:29:19;;;;;;;6.95;4.20;;;22.00;99.90;;;;;;5089301;28;20267;-51
2022/06/24 08:31:47;;;;;;;7.28;4.30;;;22.00;99.90;;;;;;5089398;28;20232;-51
2022/06/24 08:34:15;;;;;;;7.10;4.28;;;22.10;99.90;;;;;;5089793;28;20218;-51
2022/06/24 08:36:43;;;;;;;7.60;4.13;;;22.20;99.90;;;;;;5089297;28;20200;-51
2022/06/24 08:39:11;;;;;;;7.60;4.40;;;22.30;99.90;;;;;;5089255;28;20246;-51
2022/06/24 08:41:41;;;;;;;8.10;4.70;;;22.30;99.90;;;;;;5090245;28;20258;-51
2022/06/24 08:44:14;;;;;;;7.43;4.55;;;22.20;99.90;;;;;;5090695;28;20208;-50
2022/06/24 08:46:42;;;;;;;14.18;4.97;;;22.20;99.90;;;;;;5088839;28;20231;-50
2022/06/24 08:49:10;;;;;;;8.82;4.65;;;22.40;99.90;;;;;;5088890;28;20236;-50
2022/06/24 08:51:41;;;;;;;8.75;5.20;;;22.60;99.90;;;;;;5088290;28;20208;-50
2022/06/24 08:54:11;;;;;;;8.50;5.25;;;22.70;99.90;;;;;;5089408;28;20650;-50
2022/06/24 08:56:55;;;;;;;7.88;5.18;;;22.60;99.90;;;;;;5090821;28;20551;-49
2022/06/24 08:59:27;;;;;;;10.57;5.50;;;22.50;99.90;;;;;;5104565;28;20631;-50
2022/06/24 09:01:56;;;;;;;12.10;5.78;;;22.50;99.90;;;;;;5109178;28;20767;-51
2022/06/24 09:04:24;;;;;;;7.03;5.25;;;22.40;99.90;;;;;;5109992;28;20214;-49
2022/06/24 09:06:52;;;;;;;10.93;5.45;;;22.40;99.90;;;;;;5110142;28;20203;-51
2022/06/24 09:09:25;;;;;;;8.20;5.50;;;22.40;99.90;;;;;;5109322;28;20235;-51
2022/06/24 09:11:56;;;;;;;9.45;5.65;;;22.50;99.90;;;;;;5111192;28;20233;-50
2022/06/24 09:15:15;;;;;;;8.43;5.10;;;22.90;99.90;;;;;;5110730;28;20257;-50
2022/06/24 09:17:47;;;;;;;5.78;4.47;;;23.40;99.90;;;;;;5109854;28;20689;-50
2022/06/24 09:20:17;;;;;;;5.90;4.75;;;23.80;99.90;;;;;;5109904;28;20227;-51
2022/06/24 09:23:06;;;;;;;7.80;5.13;;;24.10;99.90;;;;;;5093896;28;20208;-51
2022/06/24 09:25:44;;;;;;;11.00;5.55;;;24.10;99.90;;;;;;5103392;28;20239;-51
2022/06/24 09:28:20;;;;;;;6.15;4.95;;;24.00;99.90;;;;;;5084078;28;20264;-51
2022/06/24 09:30:49;;;;;;;8.05;4.95;;;24.20;99.90;;;;;;5098482;28;20220;-51
2022/06/24 09:33:20;;;;;;;7.07;4.30;;;24.60;99.90;;;;;;5090528;28;20424;-51
2022/06/24 09:36:00;;;;;;;6.20;4.43;;;24.50;99.90;;;;;;5082480;28;20262;-51
2022/06/24 09:38:29;;;;;;;7.07;4.47;;;24.40;99.90;;;;;;5093992;28;20279;-51
2022/06/24 09:41:01;;;;;;;8.10;4.20;;;24.30;99.90;;;;;;5103475;28;20733;-52
2022/06/24 09:43:31;;;;;;;8.20;3.67;;;24.10;99.90;;;;;;5108924;28;20611;-52
2022/06/24 09:46:00;;;;;;;8.38;4.00;;;24.00;99.90;;;;;;5109337;28;20218;-52
2022/06/24 09:48:32;;;;;;;7.32;3.92;;;23.90;99.90;;;;;;5088659;28;20730;-51
2022/06/24 09:51:02;;;;;;;5.75;3.33;;;23.90;99.90;;;;;;5109730;28;20212;-51
2022/06/24 09:53:32;;;;;;;7.80;4.05;;;23.80;99.90;;;;;;5108146;28;20286;-52
2022/06/24 09:56:01;;;;;;;8.07;3.80;;;23.90;99.90;;;;;;5109222;28;20616;-51
2022/06/24 09:58:29;;;;;;;6.95;3.70;;;24.00;99.90;;;;;;5109180;28;20273;-51
2022/06/24 10:00:57;;;;;;;8.90;4.20;;;24.10;99.90;;;;;;5109567;28;20246;-51
2022/06/24 10:03:26;;;;;;;4.72;3.50;;;24.20;99.90;;;;;;5111946;28;20212;-51
2022/06/24 10:06:05;;;;;;;6.90;3.53;;;24.50;99.90;;;;;;5113298;28;20206;-51
2022/06/24 10:08:35;;;;;;;6.45;3.90;;;24.70;99.90;;;;;;5099927;28;20281;-51
2022/06/24 10:11:25;;;;;;;6.60;3.63;;;24.70;99.90;;;;;;5089601;28;20223;-51
2022/06/24 10:13:54;;;;;;;5.40;3.42;;;24.40;99.90;;;;;;5113013;28;20231;-51
2022/06/24 10:16:22;;;;;;;7.38;3.70;;;24.20;99.90;;;;;;5112822;28;20210;-51
2022/06/24 10:18:51;;;;;;;4.35;3.65;;;24.10;99.90;;;;;;5112073;28;20322;-51
2022/06/24 10:21:21;;;;;;;5.53;3.80;;;23.80;99.90;;;;;;5111388;28;20294;-51
2022/06/24 10:23:51;;;;;;;7.07;3.55;;;23.60;99.90;;;;;;5091457;28;20653;-51
2022/06/24 10:26:25;;;;;;;5.57;4.10;;;23.20;99.90;;;;;;5104412;28;20196;-51
2022/06/24 10:29:23;;;;;;;7.18;4.13;;;23.10;99.90;;;;;;5111201;28;20249;-52
2022/06/24 10:32:00;;;;;;;8.65;4.28;;;22.90;99.90;;;;;;5090326;28;20200;-51
2022/06/24 10:34:32;;;;;;;6.35;4.55;;;22.70;99.90;;;;;;5108583;28;20212;-51
2022/06/24 10:37:05;;;;;;;7.10;5.00;;;22.70;99.90;;;;;;5101495;28;20833;-52
2022/06/24 10:39:34;;;;;;;6.75;4.05;;;22.70;99.90;;;;;;5111024;28;20223;-52
2022/06/24 10:42:04;;;;;;;5.57;4.10;;;22.80;99.90;;;;;;5112351;28;20212;-52
2022/06/24 10:44:35;;;;;;;6.85;4.40;;;22.90;99.90;;;;;;5111215;28;20206;-51
2022/06/24 10:47:25;;;;;;;5.15;4.38;;;22.70;99.90;;;;;;5109713;28;20654;-51
2022/06/24 10:50:04;;;;;;;6.57;4.20;;;22.70;99.90;;;;;;5047776;28;20238;-51
2022/06/24 10:52:35;;;;;;;8.20;4.43;;;22.70;99.90;;;;;;5111220;28;20207;-52
2022/06/24 10:55:30;;;;;;;7.55;4.45;;;22.70;99.90;;;;;;5110911;28;20229;-50
2022/06/24 10:58:00;;;;;;;9.77;4.93;;;22.60;99.90;;;;;;5111111;28;20215;-52
2022/06/24 11:00:30;;;;;;;5.88;5.28;;;22.40;99.90;;;;;;5111358;28;20207;-51
2022/06/24 11:03:12;;;;;;;6.82;6.15;;;22.20;99.90;;;;;;5111617;28;20208;-51
2022/06/24 11:05:42;;;;;;;8.95;6.53;;;22.10;99.90;;;;;;5111586;28;20195;-50
2022/06/24 11:08:14;;;;;;;6.15;5.60;;;22.10;99.90;;;;;;5110909;28;20660;-51
2022/06/24 11:10:42;;;;;;;8.02;6.05;;;22.20;99.90;;;;;;5110430;28;20316;-51
2022/06/24 11:13:11;;;;;;;7.45;6.47;;;22.30;99.90;;;;;;5102615;28;20236;-52
2022/06/24 11:15:40;;;;;;;6.97;5.65;;;22.40;99.90;;;;;;5106588;28;20676;-51
2022/06/24 11:18:09;;;;;;;6.57;5.60;;;22.70;99.90;;;;;;5110531;28;20477;-52
2022/06/24 11:20:39;;;;;;;10.35;7.30;;;22.90;99.90;;;;;;5111323;28;20227;-51
2022/06/24 11:23:08;;;;;;;6.80;6.20;;;23.20;99.90;;;;;;5089017;28;20251;-51
2022/06/24 11:25:40;;;;;;;8.80;6.93;;;23.20;99.90;;;;;;5111624;28;20276;-51
2022/06/24 11:28:21;;;;;;;7.68;6.68;;;23.10;99.90;;;;;;5110870;28;20737;-51
2022/06/24 11:30:50;;;;;;;8.45;5.95;;;23.00;99.90;;;;;;5110869;28;20629;-52
2022/06/24 11:33:19;;;;;;;8.93;5.38;;;22.80;99.90;;;;;;5111315;28;20215;-51
2022/06/24 11:35:47;;;;;;;6.07;5.35;;;22.70;99.90;;;;;;5098501;28;20212;-52
2022/06/24 11:38:23;;;;;;;6.47;5.38;;;22.80;99.90;;;;;;5084155;28;20218;-51
2022/06/24 11:40:52;;;;;;;4.55;4.15;;;23.00;99.90;;;;;;5110922;28;20200;-51
2022/06/24 11:43:20;;;;;;;6.05;3.72;;;23.20;99.90;;;;;;5110957;28;20226;-52
2022/06/24 11:45:50;;;;;;;3.75;2.65;;;23.10;99.90;;;;;;5110635;28;20322;-51
2022/06/24 11:48:22;;;;;;;4.25;3.00;;;23.10;99.90;;;;;;5103050;28;20325;-51
2022/06/24 11:50:51;;;;;;;4.22;2.90;;;23.00;99.90;;;;;;5110671;28;20219;-52
2022/06/24 11:53:23;;;;;;;3.00;2.80;;;22.90;99.90;;;;;;5077201;28;20203;-51
2022/06/24 11:55:55;;;;;;;3.85;3.42;;;22.80;99.90;;;;;;5110998;28;20242;-51
2022/06/24 11:58:23;;;;;;;4.20;2.97;;;22.60;99.90;;;;;;5086601;28;20277;-52
2022/06/24 12:00:54;;;;;;;3.90;3.08;;;22.50;99.90;;;;;;5084240;28;20208;-51
2022/06/24 12:03:24;;;;;;;3.70;3.40;;;22.60;99.90;;;;;;5096673;28;20200;-51
2022/06/24 12:05:53;;;;;;;3.88;3.33;;;22.60;99.90;;;;;;5083674;28;20196;-51
2022/06/24 12:08:23;;;;;;;4.10;3.22;;;22.50;99.90;;;;;;5089823;28;20251;-52
2022/06/24 12:10:54;;;;;;;4.43;3.17;;;22.60;99.90;;;;;;5109107;28;20231;-51
2022/06/24 12:13:29;;;;;;;3.97;3.58;;;22.80;99.90;;;;;;5100224;28;20208;-51
2022/06/24 12:15:57;;;;;;;3.67;3.38;;;23.00;99.90;;;;;;5107854;28;20207;-51
2022/06/24 12:18:28;;;;;;;3.53;3.22;;;23.00;99.90;;;;;;5109348;28;20235;-51
2022/06/24 12:21:01;;;;;;;4.18;3.28;;;22.90;99.90;;;;;;5109690;28;20274;-51
2022/06/24 12:23:41;;;;;;;5.20;3.80;;;22.70;99.90;;;;;;5100008;28;20212;-51
2022/06/24 12:26:18;;;;;;;5.55;3.85;;;22.60;99.90;;;;;;5108870;28;20203;-51
2022/06/24 12:28:59;;;;;;;4.35;3.10;;;22.40;99.90;;;;;;5109329;28;20227;-50
2022/06/24 12:31:27;;;;;;;6.40;3.25;;;22.30;99.90;;;;;;5080843;28;20255;-51
2022/06/24 12:33:56;;;;;;;5.53;3.13;;;22.30;99.90;;;;;;5109975;28;20219;-51
2022/06/24 12:36:25;;;;;;;2.92;2.60;;;22.30;99.90;;;;;;5096615;28;20203;-51
2022/06/24 12:39:00;;;;;;;3.30;3.00;;;22.20;99.90;;;;;;5108824;28;20223;-51
2022/06/24 12:41:30;;;;;;;3.70;2.53;;;22.40;99.90;;;;;;5110992;28;20238;-51
2022/06/24 12:44:00;;;;;;;2.55;1.90;;;22.90;99.90;;;;;;5111437;28;20680;-51
2022/06/24 12:46:38;;;;;;;4.63;2.60;;;23.40;99.90;;;;;;5109122;28;20227;-51
2022/06/24 12:51:58;;;;;;;4.10;3.28;;;24.10;99.90;;;;;;5110045;28;20265;-51
2022/06/24 12:54:26;;;;;;;4.50;4.10;;;24.10;99.90;;;;;;5108276;28;20264;-52
2022/06/24 12:57:16;;;;;;;5.82;3.75;;;24.20;99.90;;;;;;5109612;28;20903;-51
2022/06/24 12:59:44;;;;;;;3.92;3.63;;;24.30;99.90;;;;;;5109086;28;20227;-51
2022/06/24 13:02:12;;;;;;;5.28;3.40;;;24.30;99.90;;;;;;5108992;28;20200;-51
2022/06/24 13:04:40;;;;;;;4.00;3.60;;;24.40;99.90;;;;;;5108842;28;20969;-51
2022/06/24 13:07:08;;;;;;;4.45;3.20;;;24.40;99.90;;;;;;5107851;28;20239;-51
2022/06/24 13:09:36;;;;;;;3.92;3.35;;;24.20;99.90;;;;;;5108957;28;20834;-52